Time;durP1;ratioP1;P1;durP2;ratioP2;P2;SDS_P1;SDS_P2;PMS_P1;PMS_P2;Temp;Humidity;BMP_temperature;BMP_pressure;BME280_temperature;BME280_humidity;BME280_pressure;Samples;Min_cycle;Max_cycle;Signal;HPM_P1;HPM_P2
2021/12/08 00:01:14;;;;;;;66.70;27.40;;;;;;;;;;6231931;28;20677;-87
2021/12/08 00:04:14;;;;;;;69.93;26.90;;;;;;;;;;6225817;28;20018;-87
2021/12/08 00:07:14;;;;;;;60.35;24.70;;;;;;;;;;6225691;28;20029;-87
2021/12/08 00:13:29;;;;;;;51.67;23.92;;;;;;;;;;6230815;28;20393;-87
2021/12/08 00:16:30;;;;;;;56.80;24.13;;;;;;;;;;6232428;28;20457;-87
2021/12/08 00:19:30;;;;;;;50.10;24.02;;;;;;;;;;6222157;28;20163;-87
2021/12/08 00:22:31;;;;;;;61.15;24.35;;;;;;;;;;6224802;28;20018;-87
2021/12/08 00:25:31;;;;;;;54.85;22.67;;;;;;;;;;6227254;28;20505;-87
2021/12/08 00:28:32;;;;;;;66.07;25.73;;;;;;;;;;6228076;28;20034;-87
2021/12/08 00:31:33;;;;;;;59.10;28.20;;;;;;;;;;6223175;28;20438;-87
2021/12/08 00:34:34;;;;;;;66.00;27.35;;;;;;;;;;6221629;28;20032;-86
2021/12/08 00:37:34;;;;;;;60.08;27.77;;;;;;;;;;6226018;28;20025;-86
2021/12/08 00:40:34;;;;;;;54.15;24.00;;;;;;;;;;6225641;28;20276;-86
2021/12/08 00:43:35;;;;;;;54.53;23.40;;;;;;;;;;6227682;28;20021;-86
2021/12/08 00:46:36;;;;;;;51.95;23.23;;;;;;;;;;6232194;28;20080;-86
2021/12/08 00:49:39;;;;;;;50.42;21.67;;;;;;;;;;6247420;28;20069;-86
2021/12/08 00:52:39;;;;;;;;;;;;;;;;;;6245464;28;20386;-86
2021/12/08 00:55:39;;;;;;;56.80;23.70;;;;;;;;;;6226676;28;20387;-86
2021/12/08 00:58:40;;;;;;;49.97;22.45;;;;;;;;;;6223343;28;20394;-86
2021/12/08 01:01:40;;;;;;;44.58;18.70;;;;;;;;;;6233642;28;20095;-86
2021/12/08 01:04:40;;;;;;;45.38;23.35;;;;;;;;;;6234236;28;20026;-86
2021/12/08 01:07:41;;;;;;;54.22;21.60;;;;;;;;;;6237154;28;20013;-85
2021/12/08 01:10:43;;;;;;;51.60;20.30;;;;;;;;;;6248709;28;20022;-85
2021/12/08 01:13:44;;;;;;;49.97;21.20;;;;;;;;;;6235418;28;20030;-85
2021/12/08 01:16:46;;;;;;;56.97;26.27;;;;;;;;;;6231833;28;20433;-86
2021/12/08 01:19:46;;;;;;;65.72;25.17;;;;;;;;;;6231871;28;20316;-85
2021/12/08 01:22:46;;;;;;;50.08;19.00;;;;;;;;;;6236029;28;20397;-85
2021/12/08 01:25:47;;;;;;;46.72;23.30;;;;;;;;;;6230558;28;20041;-85
2021/12/08 01:28:49;;;;;;;66.30;25.02;;;;;;;;;;6237310;28;20025;-85
2021/12/08 01:31:50;;;;;;;69.05;27.00;;;;;;;;;;6237061;28;20025;-85
2021/12/08 01:34:52;;;;;;;57.65;21.52;;;;;;;;;;6238922;28;20462;-85
2021/12/08 01:37:52;;;;;;;65.05;25.58;;;;;;;;;;6229816;28;20030;-85
2021/12/08 01:40:53;;;;;;;64.35;23.02;;;;;;;;;;6232624;28;20018;-85
2021/12/08 01:47:12;;;;;;;57.47;22.73;;;;;;;;;;6238874;28;20025;-85
2021/12/08 01:50:13;;;;;;;62.88;23.42;;;;;;;;;;6235888;28;20060;-84
2021/12/08 01:53:13;;;;;;;63.80;25.00;;;;;;;;;;6240804;28;20584;-84
2021/12/08 01:56:14;;;;;;;57.30;20.25;;;;;;;;;;6239598;28;20032;-84
2021/12/08 01:59:15;;;;;;;59.47;21.40;;;;;;;;;;6244742;28;20080;-85
2021/12/08 02:02:15;;;;;;;50.70;20.45;;;;;;;;;;6242373;28;20032;-84
2021/12/08 02:05:17;;;;;;;65.15;22.95;;;;;;;;;;6239713;28;20022;-84
2021/12/08 02:08:17;;;;;;;54.17;21.13;;;;;;;;;;6233055;28;20037;-84
2021/12/08 02:11:21;;;;;;;57.28;20.08;;;;;;;;;;6239552;28;20021;-84
2021/12/08 02:14:21;;;;;;;54.42;19.25;;;;;;;;;;6241378;28;20018;-84
2021/12/08 02:17:22;;;;;;;60.95;23.15;;;;;;;;;;6238218;28;20040;-84
2021/12/08 02:20:23;;;;;;;61.13;22.33;;;;;;;;;;6242958;28;20029;-84
2021/12/08 02:23:24;;;;;;;63.60;22.52;;;;;;;;;;6236800;28;20076;-83
2021/12/08 02:26:25;;;;;;;49.75;19.15;;;;;;;;;;6256881;28;20080;-84
2021/12/08 02:29:40;;;;;;;58.40;21.15;;;;;;;;;;6233749;28;20100;-84
2021/12/08 02:49:17;;;;;;;44.33;18.58;;;;;;;;;;6244557;28;20029;-84
2021/12/08 02:52:18;;;;;;;41.65;14.98;;;;;;;;;;6237677;28;20539;-83
2021/12/08 02:55:18;;;;;;;41.72;17.67;;;;;;;;;;6237481;28;20018;-84
2021/12/08 02:58:19;;;;;;;44.75;15.88;;;;;;;;;;6241555;28;20104;-83
2021/12/08 03:01:19;;;;;;;48.35;17.45;;;;;;;;;;6236560;28;20041;-83
2021/12/08 03:04:19;;;;;;;41.38;16.77;;;;;;;;;;6257628;28;20100;-83
2021/12/08 03:07:20;;;;;;;45.00;17.65;;;;;;;;;;6240038;28;20041;-84
2021/12/08 03:10:22;;;;;;;43.92;16.20;;;;;;;;;;6231492;28;20105;-84
2021/12/08 03:13:33;;;;;;;41.85;18.73;;;;;;;;;;6243454;28;20140;-83
2021/12/08 03:16:34;;;;;;;40.85;17.55;;;;;;;;;;6236553;28;20351;-83
2021/12/08 03:19:35;;;;;;;44.03;14.55;;;;;;;;;;6236376;28;20018;-84
2021/12/08 03:22:40;;;;;;;44.75;18.55;;;;;;;;;;6235655;28;20577;-83
2021/12/08 03:25:43;;;;;;;39.50;15.52;;;;;;;;;;6236332;28;20101;-83
2021/12/08 03:28:57;;;;;;;36.15;16.33;;;;;;;;;;6233958;28;20014;-83
2021/12/08 03:32:05;;;;;;;47.15;17.40;;;;;;;;;;6233932;28;20021;-83
2021/12/08 03:35:07;;;;;;;44.30;16.63;;;;;;;;;;6232086;28;20083;-84
2021/12/08 03:38:08;;;;;;;;;;;;;;;;;;6240393;28;20028;-84
2021/12/08 03:41:08;;;;;;;39.17;14.15;;;;;;;;;;6235207;28;19905;-84
2021/12/08 03:44:08;;;;;;;40.92;14.23;;;;;;;;;;6238392;28;20041;-83
2021/12/08 03:47:17;;;;;;;37.88;16.80;;;;;;;;;;6236007;28;20362;-83
2021/12/08 03:50:18;;;;;;;34.90;14.25;;;;;;;;;;6235091;28;20030;-84
2021/12/08 03:53:18;;;;;;;33.97;13.88;;;;;;;;;;6236126;28;20068;-84
2021/12/08 03:56:18;;;;;;;32.42;13.77;;;;;;;;;;6242167;28;20021;-83
2021/12/08 03:59:19;;;;;;;32.70;13.30;;;;;;;;;;6241156;28;20013;-84
2021/12/08 04:02:20;;;;;;;28.17;12.32;;;;;;;;;;6238062;28;20014;-84
2021/12/08 04:05:30;;;;;;;37.25;13.13;;;;;;;;;;6231740;28;20026;-84
2021/12/08 04:08:40;;;;;;;32.88;14.05;;;;;;;;;;6236515;28;20470;-84
2021/12/08 04:11:40;;;;;;;28.15;14.57;;;;;;;;;;6239645;28;20048;-82
2021/12/08 04:14:46;;;;;;;29.08;11.88;;;;;;;;;;6234852;28;20025;-82
2021/12/08 04:17:50;;;;;;;32.58;13.82;;;;;;;;;;6235165;28;20032;-83
2021/12/08 04:20:54;;;;;;;29.15;14.95;;;;;;;;;;6236445;28;20164;-83
2021/12/08 04:23:54;;;;;;;26.50;11.35;;;;;;;;;;6236792;28;20021;-83
2021/12/08 04:27:03;;;;;;;31.85;13.27;;;;;;;;;;6229848;28;20025;-83
2021/12/08 04:30:08;;;;;;;34.95;12.63;;;;;;;;;;6255455;28;20021;-83
2021/12/08 04:33:09;;;;;;;27.65;11.00;;;;;;;;;;6243265;28;20026;-83
2021/12/08 04:36:12;;;;;;;35.23;13.63;;;;;;;;;;6240636;28;20040;-83
2021/12/08 04:39:21;;;;;;;35.13;16.92;;;;;;;;;;6237749;28;20037;-83
2021/12/08 04:42:33;;;;;;;32.30;13.43;;;;;;;;;;6245932;28;20033;-84
2021/12/08 04:45:46;;;;;;;37.30;13.23;;;;;;;;;;6242789;28;20075;-83
2021/12/08 04:52:09;;;;;;;33.05;14.13;;;;;;;;;;6246036;28;20735;-83
2021/12/08 05:05:24;;;;;;;28.73;12.65;;;;;;;;;;6245467;28;20503;-83
2021/12/08 05:08:35;;;;;;;26.90;12.38;;;;;;;;;;6246765;28;20022;-83
2021/12/08 05:11:36;;;;;;;33.40;11.52;;;;;;;;;;6238179;28;20014;-83
2021/12/08 05:14:40;;;;;;;29.35;13.18;;;;;;;;;;6241633;28;20025;-83
2021/12/08 05:17:43;;;;;;;30.13;11.77;;;;;;;;;;6237440;28;20018;-82
2021/12/08 05:20:49;;;;;;;27.13;12.18;;;;;;;;;;6241213;28;20025;-82
2021/12/08 05:23:57;;;;;;;34.80;13.30;;;;;;;;;;6249613;28;20013;-82
2021/12/08 05:27:05;;;;;;;37.60;15.57;;;;;;;;;;6247018;28;20025;-83
2021/12/08 05:30:05;;;;;;;28.52;12.45;;;;;;;;;;6244936;28;20025;-83
2021/12/08 05:33:06;;;;;;;34.83;13.18;;;;;;;;;;6244461;28;20017;-82
2021/12/08 05:36:07;;;;;;;32.40;13.15;;;;;;;;;;6245628;28;20032;-82
2021/12/08 05:39:10;;;;;;;32.20;15.18;;;;;;;;;;6240161;28;20017;-82
2021/12/08 05:42:12;;;;;;;43.25;13.90;;;;;;;;;;6244921;28;20017;-82
2021/12/08 05:45:14;;;;;;;31.67;15.75;;;;;;;;;;6241580;28;20500;-82
2021/12/08 05:48:15;;;;;;;33.13;13.27;;;;;;;;;;6245207;28;20096;-82
2021/12/08 05:51:17;;;;;;;37.63;14.25;;;;;;;;;;6235170;28;20473;-82
2021/12/08 05:54:17;;;;;;;;;;;;;;;;;;6239952;28;20077;-82
2021/12/08 05:57:22;;;;;;;27.63;11.70;;;;;;;;;;6249883;28;19897;-82
2021/12/08 06:00:28;;;;;;;23.95;10.98;;;;;;;;;;6241730;28;20449;-82
2021/12/08 06:03:29;;;;;;;31.83;15.75;;;;;;;;;;6241209;28;20054;-82
2021/12/08 06:06:29;;;;;;;35.72;12.07;;;;;;;;;;6244203;28;20070;-82
2021/12/08 06:09:30;;;;;;;35.05;15.95;;;;;;;;;;6238761;28;20079;-82
2021/12/08 06:12:30;;;;;;;34.83;14.52;;;;;;;;;;6243615;28;20025;-82
2021/12/08 06:15:31;;;;;;;34.17;13.90;;;;;;;;;;6241740;28;20028;-82
2021/12/08 06:18:38;;;;;;;31.38;12.32;;;;;;;;;;6244030;28;20056;-82
2021/12/08 06:21:38;;;;;;;32.97;13.05;;;;;;;;;;6229350;28;20072;-82
2021/12/08 06:24:39;;;;;;;39.58;16.45;;;;;;;;;;6238451;28;20022;-82
2021/12/08 06:27:40;;;;;;;38.83;15.23;;;;;;;;;;6240713;28;20105;-83
2021/12/08 06:30:45;;;;;;;35.63;13.90;;;;;;;;;;6257949;28;20025;-82
2021/12/08 06:33:45;;;;;;;32.47;15.38;;;;;;;;;;6256753;28;20053;-82
2021/12/08 06:36:49;;;;;;;38.40;17.13;;;;;;;;;;6243039;28;20052;-82
2021/12/08 06:39:52;;;;;;;30.10;13.68;;;;;;;;;;6239883;28;20017;-82
2021/12/08 06:42:57;;;;;;;38.10;13.60;;;;;;;;;;6237059;28;20033;-82
2021/12/08 06:45:58;;;;;;;36.03;17.30;;;;;;;;;;6250044;28;20029;-83
2021/12/08 06:49:00;;;;;;;27.50;12.07;;;;;;;;;;6236090;28;20426;-82
2021/12/08 06:52:04;;;;;;;39.25;17.38;;;;;;;;;;6235783;28;20028;-82
2021/12/08 06:55:10;;;;;;;30.60;14.85;;;;;;;;;;6232472;28;20037;-82
2021/12/08 06:58:17;;;;;;;41.22;12.65;;;;;;;;;;6232217;28;20124;-82
2021/12/08 07:01:37;;;;;;;45.92;16.92;;;;;;;;;;6221472;28;20037;-83
2021/12/08 07:08:18;;;;;;;39.75;14.90;;;;;;;;;;6214663;28;20038;-82
2021/12/08 07:11:20;;;;;;;45.92;16.70;;;;;;;;;;6233883;28;20064;-82
2021/12/08 07:14:21;;;;;;;39.83;15.90;;;;;;;;;;6231475;28;20021;-82
2021/12/08 07:17:23;;;;;;;37.60;15.80;;;;;;;;;;6233210;28;20471;-82
2021/12/08 07:20:47;;;;;;;37.83;13.82;;;;;;;;;;6231850;28;20725;-82
2021/12/08 07:23:51;;;;;;;31.83;13.68;;;;;;;;;;6231061;28;20109;-82
2021/12/08 07:26:52;;;;;;;28.50;13.93;;;;;;;;;;6237992;28;20023;-82
2021/12/08 07:29:53;;;;;;;;;;;;;;;;;;6238493;28;20045;-82
2021/12/08 07:32:53;;;;;;;26.52;12.63;;;;;;;;;;6238697;28;19974;-81
2021/12/08 07:35:55;;;;;;;25.15;10.82;;;;;;;;;;6236578;28;20022;-82
2021/12/08 07:38:56;;;;;;;;;;;;;;;;;;6238062;28;20440;-82
2021/12/08 07:41:58;;;;;;;27.42;12.40;;;;;;;;;;6235578;28;20265;-83
2021/12/08 07:45:01;;;;;;;32.08;13.93;;;;;;;;;;6222045;28;20024;-82
2021/12/08 07:48:03;;;;;;;30.00;14.80;;;;;;;;;;6225658;28;20466;-82
2021/12/08 07:51:07;;;;;;;35.78;14.98;;;;;;;;;;6230197;28;20045;-82
2021/12/08 07:54:08;;;;;;;33.47;13.40;;;;;;;;;;6242323;28;20097;-82
2021/12/08 07:57:14;;;;;;;33.20;12.60;;;;;;;;;;6230851;28;20028;-82
2021/12/08 08:00:26;;;;;;;34.05;13.93;;;;;;;;;;6233511;28;20021;-82
2021/12/08 08:03:28;;;;;;;33.20;15.25;;;;;;;;;;6241159;28;20021;-82
2021/12/08 08:06:31;;;;;;;33.28;13.27;;;;;;;;;;6238815;28;20025;-82
2021/12/08 08:09:35;;;;;;;38.75;16.58;;;;;;;;;;6238829;28;20036;-82
2021/12/08 08:12:35;;;;;;;35.17;14.18;;;;;;;;;;6236552;28;20722;-82
2021/12/08 08:15:40;;;;;;;42.55;18.02;;;;;;;;;;6228777;28;20029;-82
2021/12/08 08:18:44;;;;;;;39.03;14.25;;;;;;;;;;6225243;28;20653;-82
2021/12/08 08:21:47;;;;;;;40.20;16.80;;;;;;;;;;6234035;28;20393;-82
2021/12/08 08:24:48;;;;;;;46.15;16.90;;;;;;;;;;6235138;28;20030;-82
2021/12/08 08:27:49;;;;;;;40.88;16.85;;;;;;;;;;6241343;28;20021;-82
2021/12/08 08:30:56;;;;;;;41.38;17.27;;;;;;;;;;6236132;28;20029;-82
2021/12/08 08:33:58;;;;;;;42.28;16.25;;;;;;;;;;6231610;28;20030;-81
2021/12/08 08:36:58;;;;;;;46.22;17.00;;;;;;;;;;6242978;28;20075;-81
2021/12/08 08:40:01;;;;;;;43.83;20.55;;;;;;;;;;6231367;28;20072;-81
2021/12/08 08:43:01;;;;;;;51.13;18.75;;;;;;;;;;6230880;28;20022;-81
2021/12/08 08:46:08;;;;;;;49.15;20.58;;;;;;;;;;6232182;28;20400;-81
2021/12/08 08:49:11;;;;;;;43.28;15.85;;;;;;;;;;6231904;28;20017;-81
2021/12/08 08:52:17;;;;;;;44.58;18.83;;;;;;;;;;6245187;28;20040;-81
2021/12/08 08:55:23;;;;;;;42.63;17.67;;;;;;;;;;6228811;28;20052;-81
2021/12/08 08:58:25;;;;;;;39.05;17.50;;;;;;;;;;6233803;28;20117;-82
2021/12/08 09:01:36;;;;;;;42.10;17.35;;;;;;;;;;6224354;28;20033;-82
2021/12/08 09:04:38;;;;;;;47.88;22.17;;;;;;;;;;6245529;28;20536;-81
2021/12/08 09:07:40;;;;;;;38.97;18.63;;;;;;;;;;6238623;28;20778;-81
2021/12/08 09:10:47;;;;;;;51.55;19.13;;;;;;;;;;6249024;28;20069;-81
2021/12/08 09:13:50;;;;;;;42.35;19.95;;;;;;;;;;6229014;28;20108;-81
2021/12/08 09:16:53;;;;;;;45.78;20.35;;;;;;;;;;6226946;28;20022;-81
2021/12/08 09:20:01;;;;;;;37.83;17.67;;;;;;;;;;6223313;28;20040;-82
2021/12/08 09:23:05;;;;;;;44.25;16.08;;;;;;;;;;6228305;28;20112;-81
2021/12/08 09:26:08;;;;;;;42.03;20.10;;;;;;;;;;6227555;28;20032;-82
2021/12/08 09:29:16;;;;;;;36.92;17.13;;;;;;;;;;6232275;28;20022;-81
2021/12/08 09:32:23;;;;;;;34.60;16.42;;;;;;;;;;6229167;28;20022;-81
2021/12/08 09:35:36;;;;;;;40.28;19.33;;;;;;;;;;6237312;28;20136;-81
2021/12/08 09:38:48;;;;;;;31.38;13.57;;;;;;;;;;6227185;28;20025;-81
2021/12/08 09:41:51;;;;;;;47.88;19.20;;;;;;;;;;6226553;28;20718;-81
2021/12/08 09:44:54;;;;;;;38.30;17.05;;;;;;;;;;6226003;28;20022;-81
2021/12/08 09:47:54;;;;;;;38.90;20.05;;;;;;;;;;6229622;28;20032;-82
2021/12/08 09:50:58;;;;;;;41.10;15.80;;;;;;;;;;6187281;28;1202312;-82
2021/12/08 09:53:59;;;;;;;41.67;17.23;;;;;;;;;;6232060;28;20041;-82
2021/12/08 09:57:01;;;;;;;34.78;16.55;;;;;;;;;;6231043;28;20041;-82
2021/12/08 10:00:05;;;;;;;36.15;17.25;;;;;;;;;;6246884;28;20064;-81
2021/12/08 10:03:06;;;;;;;35.92;14.48;;;;;;;;;;6228637;28;20116;-81
2021/12/08 10:06:07;;;;;;;40.42;20.02;;;;;;;;;;6230088;28;20014;-82
2021/12/08 10:09:08;;;;;;;38.90;17.38;;;;;;;;;;6228033;28;20394;-81
2021/12/08 10:12:08;;;;;;;43.63;16.58;;;;;;;;;;6227844;28;20033;-81
2021/12/08 10:15:10;;;;;;;35.55;15.93;;;;;;;;;;6224982;28;20356;-82
2021/12/08 10:18:10;;;;;;;39.10;16.65;;;;;;;;;;6230228;28;20022;-82
2021/12/08 10:21:13;;;;;;;36.63;14.10;;;;;;;;;;6227222;28;20044;-81
2021/12/08 10:24:19;;;;;;;39.35;18.08;;;;;;;;;;6233454;28;20727;-81
2021/12/08 10:27:19;;;;;;;37.88;16.52;;;;;;;;;;6232136;28;20026;-82
2021/12/08 10:30:21;;;;;;;36.30;16.52;;;;;;;;;;6235653;28;20032;-81
2021/12/08 10:36:56;;;;;;;35.65;15.70;;;;;;;;;;6223301;28;20104;-82
2021/12/08 10:40:07;;;;;;;38.42;17.30;;;;;;;;;;6247099;28;20112;-81
2021/12/08 10:43:16;;;;;;;38.80;15.40;;;;;;;;;;6236954;28;20017;-81
2021/12/08 10:46:16;;;;;;;35.30;17.52;;;;;;;;;;6242362;28;20018;-81
2021/12/08 10:54:23;;;;;;;41.00;17.35;;;;;;;;;;6229379;28;20050;-82
2021/12/08 10:56:08;;;;;;;33.28;16.55;;;;;;;;;;6229060;28;20037;-81
2021/12/08 10:59:09;;;;;;;32.20;16.10;;;;;;;;;;6235836;28;20017;-81
2021/12/08 11:02:29;;;;;;;38.03;13.55;;;;;;;;;;6233354;28;20031;-82
2021/12/08 11:05:36;;;;;;;31.20;15.18;;;;;;;;;;6232877;28;20029;-81
2021/12/08 11:08:38;;;;;;;33.83;16.75;;;;;;;;;;6229632;28;20021;-81
2021/12/08 11:11:43;;;;;;;28.88;13.60;;;;;;;;;;6236378;28;20013;-81
2021/12/08 11:14:47;;;;;;;36.20;13.52;;;;;;;;;;6230865;28;20037;-82
2021/12/08 11:17:48;;;;;;;32.08;15.73;;;;;;;;;;6238788;28;20368;-82
2021/12/08 11:20:59;;;;;;;35.13;14.40;;;;;;;;;;6239180;28;20005;-81
2021/12/08 11:24:00;;;;;;;30.95;13.55;;;;;;;;;;6238677;28;20014;-82
2021/12/08 11:27:07;;;;;;;30.38;15.20;;;;;;;;;;6227456;28;20150;-81
2021/12/08 11:30:12;;;;;;;38.75;15.98;;;;;;;;;;6229319;28;20093;-81
2021/12/08 11:33:18;;;;;;;37.58;15.40;;;;;;;;;;6230596;28;20026;-81
2021/12/08 11:36:20;;;;;;;30.75;12.55;;;;;;;;;;6230334;28;20060;-82
2021/12/08 11:39:22;;;;;;;33.53;14.10;;;;;;;;;;6227530;28;20483;-82
2021/12/08 11:42:25;;;;;;;33.03;14.05;;;;;;;;;;6234212;28;20029;-82
2021/12/08 11:45:25;;;;;;;;;;;;;;;;;;6235165;28;20022;-81
2021/12/08 11:48:25;;;;;;;37.80;16.17;;;;;;;;;;6234866;28;19914;-82
2021/12/08 11:51:26;;;;;;;35.00;16.27;;;;;;;;;;6227284;28;20056;-82
2021/12/08 11:54:26;;;;;;;50.67;20.55;;;;;;;;;;6231843;28;20014;-82
2021/12/08 11:57:35;;;;;;;39.08;20.00;;;;;;;;;;6228219;28;20394;-81
2021/12/08 12:00:38;;;;;;;46.17;18.88;;;;;;;;;;6223240;28;20022;-82
2021/12/08 12:03:38;;;;;;;;;;;;;;;;;;6227123;28;20022;-82
2021/12/08 12:06:38;;;;;;;46.17;20.50;;;;;;;;;;6227389;28;19912;-81
2021/12/08 12:09:39;;;;;;;42.95;18.30;;;;;;;;;;6229107;28;20104;-82
2021/12/08 12:12:41;;;;;;;39.17;17.48;;;;;;;;;;6225695;28;20022;-81
2021/12/08 12:15:44;;;;;;;47.28;17.95;;;;;;;;;;6223633;28;20025;-81
2021/12/08 12:18:44;;;;;;;40.25;13.35;;;;;;;;;;6232376;28;20026;-81
2021/12/08 12:22:05;;;;;;;38.90;18.02;;;;;;;;;;6231171;28;20041;-81
2021/12/08 12:25:09;;;;;;;38.17;14.75;;;;;;;;;;6228531;28;20129;-82
2021/12/08 12:28:28;;;;;;;36.05;15.85;;;;;;;;;;6232417;28;20023;-81
2021/12/08 12:31:47;;;;;;;41.92;18.20;;;;;;;;;;6232116;28;20147;-81
2021/12/08 12:34:52;;;;;;;40.97;17.85;;;;;;;;;;6231518;28;20021;-83
2021/12/08 12:38:01;;;;;;;39.45;17.17;;;;;;;;;;6228937;28;20033;-82
2021/12/08 12:41:02;;;;;;;38.97;15.95;;;;;;;;;;6234260;28;20060;-81
2021/12/08 12:44:22;;;;;;;40.55;17.27;;;;;;;;;;6229096;28;20340;-81
2021/12/08 12:47:25;;;;;;;40.42;17.10;;;;;;;;;;6239094;28;20041;-81
2021/12/08 12:50:26;;;;;;;36.92;16.00;;;;;;;;;;6247876;28;20037;-81
2021/12/08 12:53:34;;;;;;;43.58;18.08;;;;;;;;;;6232626;28;20025;-81
2021/12/08 12:56:34;;;;;;;43.22;16.10;;;;;;;;;;6237313;28;20116;-81
2021/12/08 12:59:39;;;;;;;41.50;16.25;;;;;;;;;;6230158;28;20018;-81
2021/12/08 13:02:49;;;;;;;36.45;15.27;;;;;;;;;;6244439;28;20107;-81
2021/12/08 13:05:51;;;;;;;38.05;15.43;;;;;;;;;;6237643;28;20029;-81
2021/12/08 13:08:51;;;;;;;43.08;18.08;;;;;;;;;;6240569;28;20125;-81
2021/12/08 13:12:05;;;;;;;46.33;20.38;;;;;;;;;;6236073;28;20570;-81
2021/12/08 13:15:08;;;;;;;37.20;15.30;;;;;;;;;;6234211;28;20029;-81
2021/12/08 13:18:09;;;;;;;34.88;13.95;;;;;;;;;;6238863;28;20032;-81
2021/12/08 13:21:10;;;;;;;36.97;15.50;;;;;;;;;;6230989;28;20029;-81
2021/12/08 13:24:30;;;;;;;37.10;16.05;;;;;;;;;;6229970;28;20084;-81
2021/12/08 13:27:30;;;;;;;33.45;15.65;;;;;;;;;;6241405;28;20024;-82
2021/12/08 13:30:32;;;;;;;29.98;13.38;;;;;;;;;;6236342;28;20382;-82
2021/12/08 13:33:42;;;;;;;43.53;17.37;;;;;;;;;;6236220;28;20127;-82
2021/12/08 13:36:47;;;;;;;42.85;13.82;;;;;;;;;;6235591;28;20030;-82
2021/12/08 13:39:48;;;;;;;39.40;14.82;;;;;;;;;;6239113;28;20099;-82
2021/12/08 13:42:50;;;;;;;40.33;18.52;;;;;;;;;;6232417;28;20045;-82
2021/12/08 13:45:51;;;;;;;36.38;14.02;;;;;;;;;;6233442;28;20010;-82
2021/12/08 13:49:10;;;;;;;51.38;20.52;;;;;;;;;;6235500;28;20053;-82
2021/12/08 13:52:10;;;;;;;38.60;18.65;;;;;;;;;;6248882;28;20053;-82
2021/12/08 13:55:16;;;;;;;40.65;17.70;;;;;;;;;;6240197;28;20025;-82
2021/12/08 13:58:18;;;;;;;39.67;17.50;;;;;;;;;;6238472;28;20574;-82
2021/12/08 14:01:19;;;;;;;34.30;16.80;;;;;;;;;;6226159;28;20033;-82
2021/12/08 14:04:19;;;;;;;42.08;18.58;;;;;;;;;;6232324;28;20421;-82
2021/12/08 14:07:19;;;;;;;33.05;15.35;;;;;;;;;;6227220;28;20493;-82
2021/12/08 14:10:40;;;;;;;36.97;16.92;;;;;;;;;;6241093;28;20053;-82
2021/12/08 14:13:48;;;;;;;42.10;17.27;;;;;;;;;;6240667;28;20100;-82
2021/12/08 14:16:48;;;;;;;38.08;20.92;;;;;;;;;;6232622;28;20100;-82
2021/12/08 14:19:48;;;;;;;43.30;19.92;;;;;;;;;;6239251;28;20027;-82
2021/12/08 14:22:49;;;;;;;35.85;16.92;;;;;;;;;;6235993;28;20014;-82
2021/12/08 14:25:51;;;;;;;37.08;17.25;;;;;;;;;;6232555;28;20073;-83
2021/12/08 14:28:52;;;;;;;;;;;;;;;;;;6228125;28;20013;-82
2021/12/08 14:31:54;;;;;;;40.72;15.52;;;;;;;;;;6232043;28;20341;-82
2021/12/08 14:34:55;;;;;;;44.78;17.35;;;;;;;;;;6225635;28;20043;-83
2021/12/08 14:37:59;;;;;;;30.75;15.57;;;;;;;;;;6226873;28;20022;-82
2021/12/08 14:40:59;;;;;;;35.90;16.95;;;;;;;;;;6227292;28;20032;-83
2021/12/08 14:44:09;;;;;;;44.33;20.27;;;;;;;;;;6234839;28;20010;-83
2021/12/08 14:47:10;;;;;;;39.90;19.75;;;;;;;;;;6234400;28;20017;-83
2021/12/08 14:50:12;;;;;;;41.38;18.67;;;;;;;;;;6235942;28;20046;-82
2021/12/08 14:53:13;;;;;;;36.17;17.67;;;;;;;;;;6238219;28;20017;-82
2021/12/08 14:56:13;;;;;;;37.13;16.10;;;;;;;;;;6240937;28;20481;-82
2021/12/08 14:59:13;;;;;;;40.90;18.73;;;;;;;;;;6239068;28;20018;-82
2021/12/08 15:02:14;;;;;;;34.55;18.17;;;;;;;;;;6240082;28;20416;-82
2021/12/08 15:05:19;;;;;;;37.37;17.70;;;;;;;;;;6232427;28;20036;-82
2021/12/08 15:08:24;;;;;;;40.78;18.98;;;;;;;;;;6231535;28;20006;-82
2021/12/08 15:11:26;;;;;;;33.40;15.63;;;;;;;;;;6236668;28;20025;-82
2021/12/08 15:14:27;;;;;;;40.88;18.70;;;;;;;;;;6235332;28;20049;-82
2021/12/08 15:17:31;;;;;;;39.05;17.33;;;;;;;;;;6237445;28;20013;-83
2021/12/08 15:20:44;;;;;;;40.45;19.60;;;;;;;;;;6229504;28;20121;-82
2021/12/08 15:23:48;;;;;;;39.75;17.38;;;;;;;;;;6243547;28;20029;-82
2021/12/08 15:26:49;;;;;;;35.15;18.42;;;;;;;;;;6236410;28;20009;-82
2021/12/08 15:29:49;;;;;;;30.13;16.52;;;;;;;;;;6237481;28;20014;-82
2021/12/08 15:33:00;;;;;;;32.75;15.73;;;;;;;;;;6230996;28;20079;-82
2021/12/08 15:36:04;;;;;;;34.70;17.25;;;;;;;;;;6236801;28;20017;-82
2021/12/08 15:39:04;;;;;;;36.25;16.42;;;;;;;;;;6230651;28;20025;-82
2021/12/08 15:42:06;;;;;;;42.13;19.83;;;;;;;;;;6227553;28;20108;-82
2021/12/08 15:45:06;;;;;;;32.78;16.13;;;;;;;;;;6233979;28;20043;-82
2021/12/08 15:48:08;;;;;;;40.63;17.17;;;;;;;;;;6225786;28;20803;-82
2021/12/08 15:51:08;;;;;;;38.08;15.52;;;;;;;;;;6226910;28;20486;-82
2021/12/08 15:54:09;;;;;;;39.30;22.00;;;;;;;;;;6232943;28;20017;-82
2021/12/08 15:57:13;;;;;;;41.03;17.75;;;;;;;;;;6229991;28;20026;-82
2021/12/08 16:00:14;;;;;;;28.95;15.57;;;;;;;;;;6235064;28;20106;-82
2021/12/08 16:03:15;;;;;;;32.95;15.57;;;;;;;;;;6233461;28;20013;-82
2021/12/08 16:06:18;;;;;;;41.87;18.53;;;;;;;;;;6233789;28;20177;-82
2021/12/08 16:09:26;;;;;;;43.15;15.90;;;;;;;;;;6230668;28;20091;-82
2021/12/08 16:12:31;;;;;;;44.60;16.83;;;;;;;;;;6234835;28;20040;-82
2021/12/08 16:15:38;;;;;;;41.75;19.20;;;;;;;;;;6233043;28;20018;-82
2021/12/08 16:18:38;;;;;;;44.85;18.20;;;;;;;;;;6231002;28;20022;-82
2021/12/08 16:21:39;;;;;;;44.38;19.13;;;;;;;;;;6245776;28;20033;-82
2021/12/08 16:24:39;;;;;;;40.60;17.45;;;;;;;;;;6229583;28;20052;-82
2021/12/08 16:27:40;;;;;;;45.95;19.05;;;;;;;;;;6227132;28;20356;-82
2021/12/08 16:30:42;;;;;;;32.10;17.75;;;;;;;;;;6232455;28;20075;-83
2021/12/08 16:33:45;;;;;;;36.30;14.55;;;;;;;;;;6231518;28;20029;-83
2021/12/08 16:36:47;;;;;;;35.22;16.48;;;;;;;;;;6225034;28;20088;-82
2021/12/08 16:43:04;;;;;;;38.30;17.25;;;;;;;;;;6238600;28;20071;-82
2021/12/08 16:46:05;;;;;;;38.35;18.70;;;;;;;;;;6234850;28;20022;-82
2021/12/08 16:49:06;;;;;;;43.53;17.98;;;;;;;;;;6236151;28;20041;-82
2021/12/08 16:52:06;;;;;;;43.47;19.73;;;;;;;;;;6249856;28;20053;-82
2021/12/08 16:55:07;;;;;;;32.03;17.35;;;;;;;;;;6232815;28;20018;-82
2021/12/08 16:58:08;;;;;;;39.95;20.02;;;;;;;;;;6237516;28;20081;-82
2021/12/08 17:01:09;;;;;;;37.60;19.85;;;;;;;;;;6239965;28;20483;-82
2021/12/08 17:04:09;;;;;;;51.45;24.55;;;;;;;;;;6235966;28;20036;-82
2021/12/08 17:07:10;;;;;;;51.90;23.85;;;;;;;;;;6238674;28;20032;-82
2021/12/08 17:10:12;;;;;;;38.45;19.45;;;;;;;;;;6239114;28;20021;-82
2021/12/08 17:13:13;;;;;;;43.92;19.52;;;;;;;;;;6227612;28;20037;-82
2021/12/08 17:16:13;;;;;;;42.70;21.17;;;;;;;;;;6248634;28;20106;-82
2021/12/08 17:19:13;;;;;;;45.90;17.42;;;;;;;;;;6234397;28;20587;-82
2021/12/08 17:22:14;;;;;;;33.50;18.25;;;;;;;;;;6242499;28;20032;-82
2021/12/08 17:25:14;;;;;;;39.95;20.30;;;;;;;;;;6253545;28;20092;-82
2021/12/08 17:28:16;;;;;;;33.42;15.65;;;;;;;;;;6230657;28;20041;-82
2021/12/08 17:31:17;;;;;;;46.33;19.20;;;;;;;;;;6230822;28;20017;-82
2021/12/08 17:34:17;;;;;;;45.95;20.63;;;;;;;;;;6234153;28;20081;-82
2021/12/08 17:37:17;;;;;;;34.17;16.45;;;;;;;;;;6231190;28;20017;-82
2021/12/08 17:40:18;;;;;;;45.58;20.23;;;;;;;;;;6233286;28;20022;-81
2021/12/08 17:43:18;;;;;;;32.35;16.98;;;;;;;;;;6249566;28;20071;-82
2021/12/08 17:46:19;;;;;;;34.13;15.80;;;;;;;;;;6235944;28;20480;-82
2021/12/08 17:49:19;;;;;;;40.60;20.40;;;;;;;;;;6232304;28;20010;-82
2021/12/08 17:52:20;;;;;;;45.97;19.45;;;;;;;;;;6236074;28;20025;-82
2021/12/08 17:55:21;;;;;;;41.72;18.38;;;;;;;;;;6239013;28;20014;-82
2021/12/08 17:58:22;;;;;;;30.98;14.13;;;;;;;;;;6245951;28;20020;-83
2021/12/08 18:01:23;;;;;;;44.30;19.87;;;;;;;;;;6240841;28;20021;-83
2021/12/08 18:04:25;;;;;;;43.75;18.00;;;;;;;;;;6238765;28;20041;-83
2021/12/08 18:07:26;;;;;;;41.75;19.00;;;;;;;;;;6231318;28;20470;-82
2021/12/08 18:10:28;;;;;;;37.58;18.80;;;;;;;;;;6237138;28;20033;-83
2021/12/08 18:13:28;;;;;;;34.90;17.48;;;;;;;;;;6229081;28;20041;-83
2021/12/08 18:16:29;;;;;;;30.88;14.93;;;;;;;;;;6236160;28;20048;-83
2021/12/08 18:19:29;;;;;;;47.03;20.45;;;;;;;;;;6239447;28;20087;-83
2021/12/08 18:22:29;;;;;;;39.15;17.70;;;;;;;;;;6240357;28;20021;-83
2021/12/08 18:25:30;;;;;;;38.30;18.88;;;;;;;;;;6252745;28;20487;-83
2021/12/08 18:28:30;;;;;;;40.28;16.25;;;;;;;;;;6236500;28;20053;-84
2021/12/08 18:31:30;;;;;;;40.95;18.90;;;;;;;;;;6252342;28;20013;-84
2021/12/08 18:34:31;;;;;;;36.88;19.15;;;;;;;;;;6242167;28;20379;-84
2021/12/08 18:37:32;;;;;;;47.67;18.55;;;;;;;;;;6241413;28;20532;-84
2021/12/08 18:40:34;;;;;;;41.10;22.88;;;;;;;;;;6238086;28;20593;-83